Time;durP1;ratioP1;P1;durP2;ratioP2;P2;SDS_P1;SDS_P2;PMS_P1;PMS_P2;Temp;Humidity;BMP_temperature;BMP_pressure;BME280_temperature;BME280_humidity;BME280_pressure;Samples;Min_cycle;Max_cycle;Signal;HPM_P1;HPM_P2
2021/06/07 00:02:22;;;;;;;6.03;4.97;;;;;;;12.53;78.84;97845.86;1699604;84;21463;-79
2021/06/07 00:04:48;;;;;;;6.33;4.40;;;;;;;12.50;76.77;97844.67;1699726;84;21088;-79
2021/06/07 00:07:15;;;;;;;6.05;4.83;;;;;;;12.49;77.07;97843.79;1699726;84;21102;-78
2021/06/07 00:09:42;;;;;;;6.00;4.75;;;;;;;12.49;77.52;97849.56;1699587;84;21059;-78
2021/06/07 00:12:17;;;;;;;10.32;5.47;;;;;;;12.49;76.44;97856.20;1699739;84;20996;-79
2021/06/07 00:14:45;;;;;;;6.37;4.42;;;;;;;12.48;75.94;97850.04;1706294;83;20936;-79
2021/06/07 00:17:12;;;;;;;6.53;4.80;;;;;;;12.45;75.86;97851.48;1722925;83;20979;-78
2021/06/07 00:19:41;;;;;;;8.05;5.08;;;;;;;12.40;77.38;97858.77;1722959;83;20995;-79
2021/06/07 00:22:09;;;;;;;5.90;4.65;;;;;;;12.38;76.48;97853.51;1701059;83;20992;-78
2021/06/07 00:24:36;;;;;;;10.53;5.40;;;;;;;12.29;78.89;97855.20;1718676;82;21087;-79
2021/06/07 00:27:04;;;;;;;5.67;4.70;;;;;;;12.24;77.42;97859.37;1699516;84;20998;-79
2021/06/07 00:29:31;;;;;;;7.03;4.22;;;;;;;12.22;77.36;97855.92;1699649;84;21535;-78
2021/06/07 00:31:58;;;;;;;6.62;4.42;;;;;;;12.20;78.04;97851.59;1696905;84;21054;-78
2021/06/07 00:34:24;;;;;;;5.50;4.22;;;;;;;12.21;77.48;97851.98;1696815;85;21048;-78
2021/06/07 00:36:51;;;;;;;5.35;4.28;;;;;;;12.24;77.58;97858.49;1696668;85;21043;-78
2021/06/07 00:39:18;;;;;;;4.87;4.30;;;;;;;12.26;77.52;97857.98;1699499;83;21136;-79
2021/06/07 00:41:48;;;;;;;5.40;4.33;;;;;;;12.27;77.80;97852.63;1719756;83;21003;-79
2021/06/07 00:44:21;;;;;;;5.87;4.12;;;;;;;12.28;78.34;97850.81;1719998;83;20975;-79
2021/06/07 00:46:49;;;;;;;5.87;4.05;;;;;;;12.27;78.48;97849.97;1721053;83;21040;-79
2021/06/07 00:49:16;;;;;;;4.78;3.87;;;;;;;12.24;78.12;97852.73;1697018;83;21024;-79
2021/06/07 00:51:45;;;;;;;4.75;4.22;;;;;;;12.23;78.25;97849.67;1724731;83;21004;-79
2021/06/07 00:54:13;;;;;;;7.00;4.53;;;;;;;12.20;78.82;97847.61;1722625;83;20985;-79
2021/06/07 00:56:41;;;;;;;8.25;4.40;;;;;;;12.23;79.17;97844.81;1696729;85;21011;-79
2021/06/07 00:59:07;;;;;;;6.70;4.20;;;;;;;12.21;79.51;97849.33;1700145;83;21001;-79
2021/06/07 01:01:34;;;;;;;5.75;4.45;;;;;;;12.18;79.37;97846.33;1719990;83;21015;-79
2021/06/07 01:04:01;;;;;;;7.60;4.90;;;;;;;12.12;79.80;97846.09;1719844;83;22252;-79
2021/06/07 01:06:29;;;;;;;5.65;4.05;;;;;;;12.12;79.46;97843.89;1719963;83;21015;-79
2021/06/07 01:08:56;;;;;;;7.15;4.30;;;;;;;12.12;79.50;97842.56;1719732;83;21397;-78
2021/06/07 01:11:24;;;;;;;6.65;4.53;;;;;;;12.08;78.40;97840.49;1714533;83;21052;-79
2021/06/07 01:13:52;;;;;;;6.03;4.37;;;;;;;12.03;78.25;97844.23;1712950;83;21062;-77
2021/06/07 01:16:20;;;;;;;6.67;4.45;;;;;;;11.98;78.93;97849.26;1725761;83;21016;-78
2021/06/07 01:18:49;;;;;;;4.85;4.25;;;;;;;11.95;78.32;97846.70;1725201;83;21032;-78
2021/06/07 01:21:23;;;;;;;5.97;4.42;;;;;;;11.90;78.42;97847.34;1719855;83;22115;-78
2021/06/07 01:23:52;;;;;;;9.03;4.85;;;;;;;11.85;78.20;97841.34;1719820;83;20983;-78
2021/06/07 01:26:22;;;;;;;7.05;4.47;;;;;;;11.77;80.64;97840.30;1719858;83;21400;-78
2021/06/07 01:28:50;;;;;;;8.28;4.87;;;;;;;11.73;81.15;97838.22;1719819;83;21043;-78
2021/06/07 01:31:19;;;;;;;7.33;4.50;;;;;;;11.66;81.66;97839.35;1719656;83;20976;-78
2021/06/07 01:33:50;;;;;;;6.60;4.67;;;;;;;11.60;82.11;97842.23;1719838;83;20983;-78
2021/06/07 01:36:17;;;;;;;5.67;4.62;;;;;;;11.57;80.96;97838.36;1713948;83;21039;-78
2021/06/07 01:38:45;;;;;;;5.20;4.47;;;;;;;11.54;81.19;97838.48;1696801;84;21060;-78
2021/06/07 01:41:16;;;;;;;9.23;4.70;;;;;;;11.51;79.88;97836.81;1639900;86;21072;-78
2021/06/07 01:43:43;;;;;;;6.10;4.70;;;;;;;11.48;82.35;97835.13;1690443;85;21055;-79
2021/06/07 01:46:10;;;;;;;7.20;4.50;;;;;;;11.47;81.88;97841.81;1685527;85;21434;-78
2021/06/07 01:48:37;;;;;;;7.47;4.62;;;;;;;11.45;80.94;97843.64;1685374;85;21125;-78
2021/06/07 01:51:07;;;;;;;8.03;5.00;;;;;;;11.41;81.67;97843.37;1685307;85;21093;-78
2021/06/07 01:53:35;;;;;;;5.83;4.70;;;;;;;11.41;80.33;97845.55;1685368;85;21073;-78
2021/06/07 01:56:05;;;;;;;6.15;4.92;;;;;;;11.39;80.39;97847.41;1685442;85;21585;-79
2021/06/07 01:58:33;;;;;;;7.37;4.65;;;;;;;11.37;80.66;97846.57;1685333;85;21089;-78
2021/06/07 02:01:13;;;;;;;5.80;4.78;;;;;;;11.35;80.30;97850.59;1684469;85;20978;-78
2021/06/07 02:03:40;;;;;;;8.88;4.92;;;;;;;11.33;80.27;97851.13;1685534;84;21435;-78
2021/06/07 02:06:09;;;;;;;5.05;4.50;;;;;;;11.27;82.95;97850.47;1668337;86;21079;-78
2021/06/07 02:08:38;;;;;;;5.97;4.95;;;;;;;11.24;82.52;97841.31;1696865;85;21488;-78
2021/06/07 02:11:12;;;;;;;5.97;4.35;;;;;;;11.24;81.39;97847.46;1696764;84;21079;-78
2021/06/07 02:13:41;;;;;;;5.53;4.70;;;;;;;11.21;82.46;97841.80;1660598;86;21081;-77
2021/06/07 02:16:13;;;;;;;8.13;4.97;;;;;;;11.20;81.04;97840.08;1649266;87;21032;-79
2021/06/07 02:18:40;;;;;;;5.35;4.35;;;;;;;11.17;81.60;97838.84;1696748;85;21573;-78
2021/06/07 02:21:10;;;;;;;5.87;4.33;;;;;;;11.17;81.50;97841.50;1696800;84;21401;-77
2021/06/07 02:23:37;;;;;;;8.10;4.85;;;;;;;11.18;83.30;97842.38;1696574;85;21067;-78
2021/06/07 02:26:09;;;;;;;4.92;4.20;;;;;;;11.18;82.77;97838.40;1671211;84;21000;-78
2021/06/07 02:28:37;;;;;;;7.45;4.55;;;;;;;11.22;83.68;97838.70;1663350;86;21083;-79
2021/06/07 02:31:05;;;;;;;5.90;4.17;;;;;;;11.27;81.61;97842.06;1685210;84;20986;-78
2021/06/07 02:33:32;;;;;;;6.17;4.30;;;;;;;11.33;81.25;97843.61;1685264;85;21037;-78
2021/06/07 02:35:59;;;;;;;6.00;4.37;;;;;;;11.36;81.64;97844.84;1685448;85;21033;-78
2021/06/07 02:38:26;;;;;;;4.20;3.80;;;;;;;11.41;81.76;97844.22;1685598;85;21589;-78
2021/06/07 02:40:53;;;;;;;4.85;3.83;;;;;;;11.43;82.14;97843.72;1685371;85;21037;-78
2021/06/07 02:43:20;;;;;;;4.60;4.05;;;;;;;11.46;81.36;97842.75;1685348;85;21041;-78
2021/06/07 02:45:48;;;;;;;8.25;4.22;;;;;;;11.45;81.02;97847.62;1685366;85;21013;-78
2021/06/07 02:48:16;;;;;;;5.00;4.15;;;;;;;11.51;81.10;97849.20;1680657;85;21017;-78
2021/06/07 02:50:47;;;;;;;5.25;4.40;;;;;;;11.56;81.31;97850.78;1682743;85;20992;-78
2021/06/07 02:53:16;;;;;;;5.47;4.30;;;;;;;11.62;81.03;97844.36;1654304;86;20966;-78
2021/06/07 02:55:47;;;;;;;5.35;4.20;;;;;;;11.62;80.95;97846.57;1668545;86;21414;-77
2021/06/07 02:58:15;;;;;;;8.13;4.30;;;;;;;11.62;80.98;97844.36;1667051;85;21389;-77
2021/06/07 03:00:52;;;;;;;6.45;4.10;;;;;;;11.60;80.62;97842.23;1641813;87;21505;-77
2021/06/07 03:03:20;;;;;;;6.15;4.10;;;;;;;11.56;80.38;97845.47;1668857;85;20985;-76
2021/06/07 03:05:50;;;;;;;5.05;4.50;;;;;;;11.54;80.18;97843.80;1685426;85;21077;-77
2021/06/07 03:08:21;;;;;;;7.42;4.53;;;;;;;11.52;79.99;97856.23;1685381;85;21021;-77
2021/06/07 03:10:53;;;;;;;61.18;35.43;;;;;;;11.52;80.23;97849.60;1685121;85;21045;-77
2021/06/07 03:13:20;;;;;;;7.28;5.35;;;;;;;11.54;79.57;97848.62;1685387;85;21400;-77
2021/06/07 03:15:53;;;;;;;5.97;4.50;;;;;;;11.45;81.10;97853.81;1681834;85;21058;-77
2021/06/07 03:18:21;;;;;;;5.10;4.28;;;;;;;11.39;80.33;97858.02;1657788;86;21064;-77
2021/06/07 03:20:49;;;;;;;7.70;4.70;;;;;;;11.37;79.83;97857.19;1664783;84;21134;-77
2021/06/07 03:23:20;;;;;;;5.92;4.78;;;;;;;11.35;80.95;97852.41;1665572;86;20985;-78
2021/06/07 03:25:49;;;;;;;5.75;4.70;;;;;;;11.34;80.41;97855.98;1690850;85;21023;-78
2021/06/07 03:28:18;;;;;;;6.72;5.33;;;;;;;11.34;79.90;97853.33;1668925;86;21036;-78
2021/06/07 03:30:46;;;;;;;6.83;5.08;;;;;;;11.35;79.95;97857.71;1690880;84;20976;-78
2021/06/07 03:33:13;;;;;;;6.72;5.20;;;;;;;11.35;80.05;97857.71;1675459;84;21017;-78
2021/06/07 03:35:43;;;;;;;8.60;4.67;;;;;;;11.35;80.06;97855.06;1701330;84;20987;-77
2021/06/07 03:38:11;;;;;;;6.85;4.75;;;;;;;11.35;80.53;97857.71;1701200;84;21071;-77
2021/06/07 03:40:42;;;;;;;6.37;4.65;;;;;;;11.34;80.97;97863.47;1698514;84;21435;-77
2021/06/07 03:43:10;;;;;;;4.75;4.25;;;;;;;11.34;80.72;97864.79;1683652;84;21036;-78
2021/06/07 03:45:37;;;;;;;8.50;4.70;;;;;;;11.37;80.02;97857.66;1684794;84;21027;-78
2021/06/07 03:48:05;;;;;;;6.20;4.85;;;;;;;11.39;79.85;97859.34;1688372;84;21001;-78
2021/06/07 03:50:34;;;;;;;6.70;4.80;;;;;;;11.43;81.09;97862.75;1695908;84;21414;-78
2021/06/07 03:53:01;;;;;;;8.95;5.28;;;;;;;11.44;80.37;97866.67;1695866;84;21016;-78
2021/06/07 03:55:29;;;;;;;7.83;4.65;;;;;;;11.43;81.64;97862.75;1695823;84;21036;-78
2021/06/07 03:57:58;;;;;;;8.98;5.30;;;;;;;11.42;81.97;97859.22;1695728;84;21357;-78
2021/06/07 04:00:28;;;;;;;5.78;4.53;;;;;;;11.45;81.12;97856.46;1695855;84;21024;-78
2021/06/07 04:02:57;;;;;;;8.63;4.92;;;;;;;11.49;81.17;97856.77;1695943;84;21072;-78
2021/06/07 04:05:24;;;;;;;7.87;4.55;;;;;;;11.52;80.98;97854.46;1695010;84;21021;-78
2021/06/07 04:07:52;;;;;;;6.80;4.28;;;;;;;11.57;80.25;97859.14;1688292;84;21095;-78
2021/06/07 04:10:22;;;;;;;15.43;9.50;;;;;;;11.66;80.50;97869.88;1686213;84;21051;-79
2021/06/07 04:12:50;;;;;;;5.75;4.50;;;;;;;11.71;80.27;97872.39;1673093;86;21027;-79
2021/06/07 04:15:24;;;;;;;5.95;4.15;;;;;;;11.81;80.07;97871.58;1677162;84;21009;-79
2021/06/07 04:17:52;;;;;;;8.43;4.33;;;;;;;11.92;80.09;97869.86;1696068;84;21016;-79
2021/06/07 04:20:23;;;;;;;7.05;4.65;;;;;;;12.02;79.70;97871.25;1695842;84;21004;-79
2021/06/07 04:22:50;;;;;;;8.68;4.40;;;;;;;12.12;79.43;97870.00;1695808;84;21024;-79
2021/06/07 04:25:20;;;;;;;8.38;4.15;;;;;;;12.25;79.14;97861.58;1695677;84;21083;-79
2021/06/07 04:27:47;;;;;;;6.58;4.50;;;;;;;12.35;78.50;97863.40;1695860;84;21036;-79
2021/06/07 04:30:17;;;;;;;5.70;4.15;;;;;;;12.45;78.62;97865.25;1689371;84;21512;-79
2021/06/07 04:32:47;;;;;;;6.40;5.10;;;;;;;12.53;77.78;97869.33;1687608;84;21022;-79
2021/06/07 04:35:16;;;;;;;7.87;5.53;;;;;;;12.60;77.96;97863.76;1668940;86;21414;-79
2021/06/07 04:37:51;;;;;;;7.47;5.03;;;;;;;12.63;77.96;97870.30;1690852;85;21058;-79
2021/06/07 04:40:32;;;;;;;10.05;5.25;;;;;;;12.66;77.67;97872.81;1668810;86;21041;-79
2021/06/07 04:43:02;;;;;;;7.28;5.58;;;;;;;12.71;77.59;97873.48;1690503;85;21024;-79
2021/06/07 04:45:29;;;;;;;6.92;4.53;;;;;;;12.78;77.30;97874.11;1667614;86;20981;-79
2021/06/07 04:47:56;;;;;;;7.00;5.00;;;;;;;12.85;77.14;97861.44;1663221;86;21064;-79
2021/06/07 04:50:25;;;;;;;6.12;4.80;;;;;;;12.92;76.77;97850.96;1719852;83;21357;-78
2021/06/07 04:53:01;;;;;;;7.30;5.40;;;;;;;12.98;76.70;97865.33;1719870;83;21095;-78
2021/06/07 04:55:41;;;;;;;7.33;5.10;;;;;;;13.01;76.42;97867.87;1709916;83;20953;-78
2021/06/07 04:58:19;;;;;;;9.03;5.10;;;;;;;13.04;76.64;97870.87;1705013;83;21398;-78
2021/06/07 05:00:50;;;;;;;7.15;4.55;;;;;;;13.11;76.37;97873.66;1695674;83;21754;-78
2021/06/07 05:03:18;;;;;;;7.05;5.12;;;;;;;13.18;76.70;97871.61;1696848;85;21095;-77
2021/06/07 05:05:46;;;;;;;5.90;5.03;;;;;;;13.25;76.15;97870.41;1696916;85;21088;-76
2021/06/07 05:08:13;;;;;;;8.25;5.17;;;;;;;13.33;76.59;97864.78;1717870;83;20993;-77
2021/06/07 05:10:41;;;;;;;9.83;5.33;;;;;;;13.42;76.08;97864.84;1720412;83;21057;-77
2021/06/07 05:13:08;;;;;;;8.63;5.20;;;;;;;13.51;75.84;97859.15;1720428;83;21017;-77
2021/06/07 05:15:35;;;;;;;6.50;5.12;;;;;;;13.59;75.65;97868.98;1721740;83;21393;-77
2021/06/07 05:18:02;;;;;;;10.63;5.42;;;;;;;13.67;76.36;97857.14;1720110;83;20968;-77
2021/06/07 05:20:30;;;;;;;10.10;5.50;;;;;;;13.76;75.47;97862.52;1709910;83;21000;-76
2021/06/07 05:22:59;;;;;;;6.62;5.08;;;;;;;13.84;75.45;97867.03;1716230;83;21080;-76
2021/06/07 05:25:28;;;;;;;7.47;5.12;;;;;;;13.92;75.23;97870.69;1710921;83;20968;-77
2021/06/07 05:27:57;;;;;;;7.80;4.80;;;;;;;14.00;74.79;97863.22;1720355;83;21020;-78
2021/06/07 05:30:27;;;;;;;7.40;4.85;;;;;;;14.09;74.71;97859.25;1720232;83;21048;-77
2021/06/07 05:32:54;;;;;;;6.50;4.33;;;;;;;14.18;74.60;97862.83;1714502;83;21448;-77
2021/06/07 05:35:24;;;;;;;6.20;4.20;;;;;;;14.28;74.40;97859.25;1711401;84;21088;-77
2021/06/07 05:37:51;;;;;;;6.72;4.17;;;;;;;14.37;74.02;97860.16;1711652;84;21047;-77
2021/06/07 05:40:21;;;;;;;6.17;4.08;;;;;;;14.49;73.70;97864.04;1711656;84;21448;-76
2021/06/07 05:42:49;;;;;;;5.87;3.72;;;;;;;14.60;73.52;97858.20;1711588;84;20980;-77
2021/06/07 05:45:17;;;;;;;4.80;3.70;;;;;;;14.69;73.36;97861.38;1706631;84;20986;-77
2021/06/07 05:47:45;;;;;;;5.15;4.00;;;;;;;14.80;72.96;97864.40;1690220;84;20977;-76
2021/06/07 05:50:19;;;;;;;8.80;4.67;;;;;;;14.91;72.46;97861.22;1683121;85;21026;-76
2021/06/07 05:52:47;;;;;;;5.23;4.47;;;;;;;15.03;72.17;97865.92;1697990;84;21416;-74
2021/06/07 05:55:22;;;;;;;7.22;4.50;;;;;;;15.13;71.96;97867.67;1711218;84;20924;-73
2021/06/07 05:57:53;;;;;;;7.62;3.98;;;;;;;15.21;71.90;97865.95;1700877;84;20999;-73
2021/06/07 06:00:24;;;;;;;5.80;3.95;;;;;;;15.33;71.93;97864.47;1707737;84;20992;-73
2021/06/07 06:02:51;;;;;;;6.90;3.92;;;;;;;15.44;70.14;97863.89;1711499;84;20979;-73
2021/06/07 06:05:18;;;;;;;7.60;4.22;;;;;;;15.55;71.02;97872.69;1707537;84;21389;-72
2021/06/07 06:07:46;;;;;;;5.78;3.70;;;;;;;15.64;70.90;97866.87;1711382;84;21030;-73
2021/06/07 06:10:14;;;;;;;5.95;3.98;;;;;;;15.73;70.50;97868.67;1698514;84;21026;-73
2021/06/07 06:12:43;;;;;;;6.42;3.98;;;;;;;15.83;70.36;97865.91;1706816;84;21110;-72
2021/06/07 06:15:13;;;;;;;7.58;3.45;;;;;;;15.94;70.02;97870.69;1695353;84;20984;-73
2021/06/07 06:17:40;;;;;;;5.65;3.62;;;;;;;16.03;69.64;97867.52;1710058;84;21436;-72
2021/06/07 06:20:08;;;;;;;5.72;3.50;;;;;;;16.11;69.87;97867.10;1710060;84;20983;-72
2021/06/07 06:22:36;;;;;;;5.40;3.75;;;;;;;16.19;69.32;97868.05;1699620;83;21054;-72
2021/06/07 06:25:06;;;;;;;4.53;3.47;;;;;;;16.30;69.31;97871.45;1682875;85;21062;-71
2021/06/07 06:27:35;;;;;;;5.58;3.80;;;;;;;16.39;68.93;97868.27;1707792;84;21413;-72
2021/06/07 06:30:06;;;;;;;7.22;4.05;;;;;;;16.52;68.80;97868.94;1711463;84;21456;-73
2021/06/07 06:32:33;;;;;;;5.00;4.08;;;;;;;16.63;68.22;97864.71;1711342;83;21055;-73
2021/06/07 06:34:59;;;;;;;10.30;3.60;;;;;;;16.73;67.45;97865.03;1711040;83;20955;-73
2021/06/07 06:37:25;;;;;;;8.80;5.25;;;;;;;16.84;67.28;97867.11;1698991;84;21030;-72
2021/06/07 06:39:52;;;;;;;10.28;6.58;;;;;;;16.96;67.78;97866.87;1711156;84;21078;-72
2021/06/07 06:42:19;;;;;;;7.92;4.50;;;;;;;17.04;67.61;97870.94;1711397;84;21445;-72
2021/06/07 06:44:45;;;;;;;4.53;3.92;;;;;;;17.09;67.36;97863.50;1706055;84;21046;-72
2021/06/07 06:47:12;;;;;;;6.08;3.95;;;;;;;17.16;67.38;97867.56;1704596;83;21079;-72
2021/06/07 06:49:38;;;;;;;6.30;3.98;;;;;;;17.23;66.60;97862.71;1711040;84;21418;-73
2021/06/07 06:52:05;;;;;;;4.47;3.77;;;;;;;17.32;65.35;97862.63;1711753;84;21369;-75
2021/06/07 06:54:32;;;;;;;18.07;12.40;;;;;;;17.41;66.04;97869.63;1712269;84;20999;-76
2021/06/07 06:56:59;;;;;;;4.90;4.17;;;;;;;17.51;66.09;97866.40;1712081;84;21000;-76
2021/06/07 06:59:25;;;;;;;6.90;4.03;;;;;;;17.58;65.45;97865.09;1711024;84;20979;-76
2021/06/07 07:01:52;;;;;;;5.83;4.08;;;;;;;17.67;65.79;97859.64;1711848;84;21385;-76
2021/06/07 07:04:19;;;;;;;7.25;4.35;;;;;;;17.75;65.30;97860.05;1711213;84;20972;-76
2021/06/07 07:06:45;;;;;;;5.78;4.40;;;;;;;17.86;64.71;97854.50;1711332;84;21358;-74
2021/06/07 07:09:12;;;;;;;7.50;4.60;;;;;;;17.95;65.04;97854.77;1711177;84;21062;-74
2021/06/07 07:11:38;;;;;;;4.92;3.80;;;;;;;18.06;64.62;97862.66;1710608;84;20988;-74
2021/06/07 07:14:05;;;;;;;7.28;4.92;;;;;;;18.16;64.27;97858.47;1711331;84;21006;-74
2021/06/07 07:16:32;;;;;;;6.47;5.00;;;;;;;18.25;63.19;97855.67;1713697;83;21000;-73
2021/06/07 07:18:58;;;;;;;5.05;4.45;;;;;;;18.35;64.00;97851.91;1711803;84;20990;-74
2021/06/07 07:21:25;;;;;;;7.45;4.60;;;;;;;18.42;63.64;97857.28;1713154;83;20996;-75
2021/06/07 07:23:52;;;;;;;7.22;3.90;;;;;;;18.49;61.79;97851.51;1715970;83;21075;-74
2021/06/07 07:26:22;;;;;;;6.22;4.47;;;;;;;18.56;61.00;97859.06;1714562;83;21011;-73
2021/06/07 07:28:47;;;;;;;4.85;4.35;;;;;;;18.64;61.20;97854.53;1712644;84;20952;-74
2021/06/07 07:31:14;;;;;;;8.05;4.30;;;;;;;18.73;61.29;97853.09;1713175;84;21014;-73
2021/06/07 07:33:45;;;;;;;6.87;4.22;;;;;;;18.79;61.13;97854.49;1701590;83;20976;-76
2021/06/07 07:36:11;;;;;;;6.95;4.00;;;;;;;18.89;61.11;97852.92;1692874;84;21115;-72
2021/06/07 07:38:39;;;;;;;7.28;4.12;;;;;;;18.98;61.20;97855.00;1694577;84;21458;-73
2021/06/07 07:41:06;;;;;;;5.03;4.12;;;;;;;19.06;59.58;97850.48;1695920;84;21094;-73
2021/06/07 07:43:33;;;;;;;6.20;4.37;;;;;;;19.17;60.16;97848.44;1660871;85;21105;-75
2021/06/07 07:46:00;;;;;;;6.60;4.40;;;;;;;19.26;60.32;97855.88;1647346;87;21009;-74
2021/06/07 07:48:27;;;;;;;9.70;4.65;;;;;;;19.35;59.19;97850.35;1647823;87;21015;-73
2021/06/07 07:50:53;;;;;;;7.70;3.92;;;;;;;19.42;58.95;97846.77;1695812;84;21060;-73
2021/06/07 07:53:21;;;;;;;6.65;4.30;;;;;;;19.49;59.28;97852.11;1665874;85;21065;-73
2021/06/07 07:55:51;;;;;;;9.28;4.60;;;;;;;19.54;57.26;97855.81;1646342;87;22125;-73
2021/06/07 07:58:18;;;;;;;7.92;4.87;;;;;;;19.58;56.56;97853.77;1693535;84;20977;-74
2021/06/07 08:00:47;;;;;;;7.42;4.55;;;;;;;19.65;57.59;97854.58;1661790;85;21056;-75
2021/06/07 08:03:13;;;;;;;8.10;4.30;;;;;;;19.74;56.88;97853.10;1677206;85;21115;-76
2021/06/07 08:05:40;;;;;;;10.15;5.20;;;;;;;19.84;57.75;97851.96;1649160;86;20993;-78
2021/06/07 08:08:07;;;;;;;8.55;4.47;;;;;;;19.92;57.94;97849.60;1703781;84;21114;-78
2021/06/07 08:10:34;;;;;;;6.55;3.83;;;;;;;20.00;57.99;97850.91;1666717;86;21072;-77
2021/06/07 08:13:01;;;;;;;7.92;4.37;;;;;;;20.07;56.69;97852.68;1631612;87;21463;-76
2021/06/07 08:15:30;;;;;;;7.17;4.60;;;;;;;20.13;56.35;97853.11;1627574;88;21439;-76
2021/06/07 08:17:57;;;;;;;7.28;3.98;;;;;;;20.19;54.67;97851.82;1628370;87;21024;-75
2021/06/07 08:20:23;;;;;;;7.60;4.00;;;;;;;20.23;53.43;97841.69;1647077;86;21056;-75
2021/06/07 08:22:54;;;;;;;5.85;3.72;;;;;;;20.28;53.10;97840.88;1643941;87;21000;-75
2021/06/07 08:25:24;;;;;;;5.75;4.00;;;;;;;20.32;50.72;97836.99;1700073;84;22207;-75
2021/06/07 08:27:51;;;;;;;7.40;3.77;;;;;;;20.37;49.70;97836.17;1705098;84;21524;-77
2021/06/07 08:30:20;;;;;;;14.00;6.30;;;;;;;20.41;52.83;97838.14;1699103;84;21461;-77
2021/06/07 08:32:48;;;;;;;11.40;7.58;;;;;;;20.52;51.96;97836.02;1666848;84;20998;-77
2021/06/07 08:35:16;;;;;;;6.28;4.30;;;;;;;20.68;52.79;97839.80;1689967;85;21085;-74
2021/06/07 08:37:43;;;;;;;6.95;3.90;;;;;;;20.80;53.32;97840.23;1686133;85;20982;-74
2021/06/07 08:40:13;;;;;;;8.93;4.00;;;;;;;20.94;52.73;97839.25;1690748;84;20978;-74
2021/06/07 08:42:42;;;;;;;7.55;4.15;;;;;;;21.08;53.76;97835.98;1688862;84;21017;-76
2021/06/07 08:45:14;;;;;;;4.22;3.83;;;;;;;21.22;53.37;97833.60;1686165;85;21010;-81
2021/06/07 08:47:43;;;;;;;6.25;3.50;;;;;;;21.30;53.09;97829.81;1683268;85;21022;-79
2021/06/07 08:50:13;;;;;;;5.80;3.60;;;;;;;21.37;53.00;97831.55;1684680;85;21002;-80
2021/06/07 08:52:43;;;;;;;5.78;3.70;;;;;;;21.41;49.76;97827.65;1682225;85;21049;-79
2021/06/07 08:55:18;;;;;;;5.33;3.33;;;;;;;21.45;49.94;97822.88;1671626;86;20994;-80
2021/06/07 08:57:52;;;;;;;5.83;3.50;;;;;;;21.56;51.18;97825.61;1672916;86;21064;-78
2021/06/07 09:00:23;;;;;;;4.00;3.30;;;;;;;21.65;50.75;97816.41;1675927;86;21008;-78
2021/06/07 09:03:03;;;;;;;3.70;2.70;;;;;;;21.71;50.73;97825.40;1676107;86;21069;-77
2021/06/07 09:05:30;;;;;;;3.20;2.60;;;;;;;21.81;50.00;97825.55;1675083;86;22061;-78
2021/06/07 09:08:07;;;;;;;7.10;2.50;;;;;;;21.76;41.40;97817.33;1671083;85;20985;-78
2021/06/07 09:10:38;;;;;;;2.25;2.05;;;;;;;21.70;40.76;97818.27;1721651;83;21004;-77
2021/06/07 09:13:08;;;;;;;3.67;2.52;;;;;;;21.64;42.28;97816.92;1702471;83;20981;-78
2021/06/07 09:15:46;;;;;;;3.67;2.40;;;;;;;21.67;42.43;97814.48;1673953;85;21084;-78
2021/06/07 09:18:21;;;;;;;2.95;2.50;;;;;;;21.75;43.74;97808.88;1670141;84;21076;-76
2021/06/07 09:20:47;;;;;;;6.50;2.75;;;;;;;21.76;42.77;97812.44;1668064;86;21057;-77
2021/06/07 09:23:16;;;;;;;2.75;2.55;;;;;;;21.76;44.31;97808.39;1676130;86;21359;-77
2021/06/07 09:25:47;;;;;;;3.12;2.72;;;;;;;21.76;43.64;97809.74;1683001;85;21048;-78
2021/06/07 09:28:23;;;;;;;2.95;2.62;;;;;;;21.76;43.77;97809.23;1685587;84;21032;-79
2021/06/07 09:30:57;;;;;;;2.72;2.40;;;;;;;21.82;44.74;97811.08;1655841;86;21020;-79
2021/06/07 09:33:43;;;;;;;3.98;2.52;;;;;;;21.96;42.66;97808.14;1678971;84;21445;-78
2021/06/07 09:36:33;;;;;;;2.52;2.20;;;;;;;22.12;43.10;97801.03;1684277;85;21418;-77
2021/06/07 09:39:16;;;;;;;3.22;2.80;;;;;;;22.26;41.66;97790.97;1684045;85;21398;-77
2021/06/07 09:42:08;;;;;;;5.15;2.62;;;;;;;22.41;43.00;97792.41;1683819;85;21120;-75
2021/06/07 09:44:51;;;;;;;2.80;2.50;;;;;;;22.60;42.37;97792.28;1686695;85;20984;-75
2021/06/07 09:47:33;;;;;;;4.65;2.65;;;;;;;22.80;41.58;97783.02;1719678;83;20950;-74
2021/06/07 09:50:08;;;;;;;3.92;2.30;;;;;;;23.03;42.16;97787.83;1720211;83;21028;-75
2021/06/07 09:52:48;;;;;;;2.55;2.27;;;;;;;23.25;42.08;97791.39;1717887;83;20997;-75
2021/06/07 09:55:21;;;;;;;2.98;2.62;;;;;;;23.34;41.63;97787.10;1719716;83;21314;-75
2021/06/07 09:57:55;;;;;;;4.47;2.60;;;;;;;23.31;40.41;97798.14;1720833;83;21028;-76
2021/06/07 10:00:58;;;;;;;2.40;2.20;;;;;;;23.29;39.91;97787.96;1717595;83;20997;-75
2021/06/07 10:03:31;;;;;;;3.90;2.50;;;;;;;23.05;39.63;97793.95;1747369;81;21068;-80
2021/06/07 10:06:03;;;;;;;4.55;2.58;;;;;;;23.08;40.74;97788.30;1743137;81;21427;-78
2021/06/07 10:08:49;;;;;;;4.03;2.90;;;;;;;23.27;41.53;97786.73;1743875;81;20993;-77
2021/06/07 10:11:33;;;;;;;5.87;2.72;;;;;;;23.40;41.55;97782.98;1746999;81;21344;-78
2021/06/07 10:14:19;;;;;;;;;;;;;;;23.43;41.85;97786.80;1723261;81;21002;-77
2021/06/07 10:17:00;;;;;;;3.33;2.47;;;;;;;23.54;39.37;97779.95;1750949;81;20415;-77
2021/06/07 10:22:13;;;;;;;2.62;2.20;;;;;;;23.99;39.88;97780.59;1743263;81;21438;-79
2021/06/07 10:24:40;;;;;;;2.30;2.10;;;;;;;24.18;38.50;97767.68;1748459;81;21049;-80
2021/06/07 10:27:07;;;;;;;2.77;2.45;;;;;;;24.35;39.47;97766.64;1743136;82;21445;-77
2021/06/07 10:29:38;;;;;;;3.47;2.50;;;;;;;24.55;39.54;97760.78;1738921;81;21156;-79
2021/06/07 10:32:17;;;;;;;3.60;2.60;;;;;;;24.73;38.45;97761.42;1740713;81;21328;-79
2021/06/07 10:34:56;;;;;;;2.62;2.20;;;;;;;24.78;37.95;97757.30;1674685;85;21031;-79
2021/06/07 10:37:27;;;;;;;3.20;2.10;;;;;;;24.60;38.56;97762.56;1699674;84;20982;-80
2021/06/07 10:40:21;;;;;;;5.92;2.60;;;;;;;24.56;33.11;97761.62;1705844;83;21309;-80
2021/06/07 10:43:03;;;;;;;2.30;2.10;;;;;;;24.87;34.78;97767.81;1699984;84;20989;-78
2021/06/07 10:45:34;;;;;;;2.60;1.90;;;;;;;25.31;34.97;97751.10;1705247;83;20998;-81
2021/06/07 10:48:01;;;;;;;3.35;2.15;;;;;;;26.55;33.73;97746.98;1704904;83;21018;-78
2021/06/07 10:50:37;;;;;;;3.08;2.27;;;;;;;27.37;33.98;97741.97;1703462;83;21005;-79
2021/06/07 10:53:06;;;;;;;3.83;2.45;;;;;;;27.27;33.89;97742.55;1708167;83;21045;-77
2021/06/07 10:55:39;;;;;;;3.17;2.15;;;;;;;28.13;32.08;97741.88;1705404;83;21444;-79
2021/06/07 10:58:12;;;;;;;2.37;2.02;;;;;;;29.12;31.59;97724.92;1696694;84;21614;-76
2021/06/07 11:00:45;;;;;;;4.87;2.15;;;;;;;29.86;28.66;97728.58;1696967;84;21021;-77
2021/06/07 11:03:22;;;;;;;6.65;2.10;;;;;;;30.43;24.39;97722.55;1693092;84;21018;-77
2021/06/07 11:05:53;;;;;;;5.28;2.10;;;;;;;30.66;23.81;97716.23;1690783;84;21105;-77
2021/06/07 11:08:30;;;;;;;3.42;2.08;;;;;;;31.07;25.78;97719.21;1683019;85;20959;-77
2021/06/07 11:11:21;;;;;;;2.67;2.27;;;;;;;31.94;26.67;97710.69;1682982;85;21064;-77
2021/06/07 11:14:01;;;;;;;6.00;2.02;;;;;;;32.72;25.48;97706.06;1687867;84;20996;-78
2021/06/07 11:16:32;;;;;;;3.22;2.40;;;;;;;33.38;24.68;97702.73;1711560;84;20992;-77
2021/06/07 11:19:09;;;;;;;2.50;2.30;;;;;;;33.75;21.93;97706.70;1711611;84;20960;-78
2021/06/07 11:21:45;;;;;;;3.08;2.20;;;;;;;34.23;21.67;97705.07;1689351;84;21377;-77
2021/06/07 11:24:39;;;;;;;3.00;1.98;;;;;;;34.74;21.08;97703.77;1674623;84;21463;-77
2021/06/07 11:27:08;;;;;;;2.77;2.10;;;;;;;34.99;20.32;97696.28;1681400;84;21007;-78
2021/06/07 11:29:35;;;;;;;6.45;5.95;;;;;;;35.26;20.29;97692.71;1682174;84;20963;-77
2021/06/07 11:32:11;;;;;;;2.42;2.02;;;;;;;35.48;20.35;97696.59;1697523;84;21066;-77
2021/06/07 11:34:50;;;;;;;5.87;2.33;;;;;;;35.82;18.50;97693.83;1694772;84;21125;-78
2021/06/07 11:37:32;;;;;;;4.30;2.25;;;;;;;35.67;19.18;97691.61;1693681;84;21022;-77
2021/06/07 11:40:00;;;;;;;3.05;2.10;;;;;;;35.47;19.34;97690.27;1694305;84;21027;-78
2021/06/07 11:42:29;;;;;;;3.40;1.90;;;;;;;35.51;19.62;97687.91;1695822;84;21466;-77
2021/06/07 11:45:10;;;;;;;2.05;1.85;;;;;;;35.89;19.05;97689.98;1696306;84;20994;-76
2021/06/07 11:47:44;;;;;;;2.20;2.00;;;;;;;35.87;18.44;97687.95;1695993;84;21124;-76
2021/06/07 11:50:15;;;;;;;2.37;1.75;;;;;;;35.08;18.14;97679.56;1681085;85;21006;-77
2021/06/07 11:52:51;;;;;;;2.80;1.80;;;;;;;35.06;17.76;97681.14;1659052;85;21053;-77